sensor_id;sensor_type;location;lat;lon;timestamp;pressure;altitude;pressure_sealevel;temperature;humidity
70544;BME280;58097;48.364;-1.224;2024-03-08T00:02:03;98678.69;;;7.90;100.00
70544;BME280;58097;48.364;-1.224;2024-03-08T00:04:28;98683.66;;;7.95;100.00
70544;BME280;58097;48.364;-1.224;2024-03-08T00:06:54;98685.06;;;7.91;100.00
70544;BME280;58097;48.364;-1.224;2024-03-08T00:09:19;98680.06;;;7.78;100.00
70544;BME280;58097;48.364;-1.224;2024-03-08T00:11:44;98677.84;;;7.73;100.00
70544;BME280;58097;48.364;-1.224;2024-03-08T00:14:09;98682.31;;;7.83;100.00
70544;BME280;58097;48.364;-1.224;2024-03-08T00:16:35;98670.63;;;7.81;100.00
70544;BME280;58097;48.364;-1.224;2024-03-08T00:19:01;98657.38;;;7.76;100.00
70544;BME280;58097;48.364;-1.224;2024-03-08T00:21:26;98657.22;;;7.69;100.00
70544;BME280;58097;48.364;-1.224;2024-03-08T00:23:52;98644.50;;;7.68;100.00
70544;BME280;58097;48.364;-1.224;2024-03-08T00:26:20;98640.72;;;7.69;100.00
70544;BME280;58097;48.364;-1.224;2024-03-08T00:28:47;98632.84;;;7.58;100.00
70544;BME280;58097;48.364;-1.224;2024-03-08T00:31:13;98624.06;;;7.63;100.00
70544;BME280;58097;48.364;-1.224;2024-03-08T00:33:39;98622.69;;;7.67;100.00
70544;BME280;58097;48.364;-1.224;2024-03-08T00:36:04;98608.09;;;7.66;100.00
70544;BME280;58097;48.364;-1.224;2024-03-08T00:38:30;98609.81;;;7.59;100.00
70544;BME280;58097;48.364;-1.224;2024-03-08T00:40:56;98604.00;;;7.54;100.00
70544;BME280;58097;48.364;-1.224;2024-03-08T00:43:22;98601.06;;;7.56;100.00
70544;BME280;58097;48.364;-1.224;2024-03-08T00:45:47;98596.78;;;7.53;100.00
70544;BME280;58097;48.364;-1.224;2024-03-08T00:48:12;98580.97;;;7.55;100.00
70544;BME280;58097;48.364;-1.224;2024-03-08T00:50:38;98586.81;;;7.52;100.00
70544;BME280;58097;48.364;-1.224;2024-03-08T00:53:03;98579.25;;;7.54;100.00
70544;BME280;58097;48.364;-1.224;2024-03-08T00:55:29;98574.25;;;7.58;100.00
70544;BME280;58097;48.364;-1.224;2024-03-08T00:57:55;98566.84;;;7.50;100.00
70544;BME280;58097;48.364;-1.224;2024-03-08T01:00:20;98576.84;;;7.43;100.00
70544;BME280;58097;48.364;-1.224;2024-03-08T01:02:46;98580.28;;;7.53;100.00
70544;BME280;58097;48.364;-1.224;2024-03-08T01:05:12;98566.34;;;7.46;100.00
70544;BME280;58097;48.364;-1.224;2024-03-08T01:07:38;98555.19;;;7.48;100.00
70544;BME280;58097;48.364;-1.224;2024-03-08T01:10:04;98554.84;;;7.43;100.00
70544;BME280;58097;48.364;-1.224;2024-03-08T01:12:34;98552.44;;;7.48;100.00
70544;BME280;58097;48.364;-1.224;2024-03-08T01:15:00;98543.50;;;7.46;100.00
70544;BME280;58097;48.364;-1.224;2024-03-08T01:17:25;98552.63;;;7.38;100.00
70544;BME280;58097;48.364;-1.224;2024-03-08T01:19:51;98547.81;;;7.40;100.00
70544;BME280;58097;48.364;-1.224;2024-03-08T01:22:16;98548.66;;;7.41;100.00
70544;BME280;58097;48.364;-1.224;2024-03-08T01:24:41;98547.13;;;7.38;100.00
70544;BME280;58097;48.364;-1.224;2024-03-08T01:27:07;98545.59;;;7.36;100.00
70544;BME280;58097;48.364;-1.224;2024-03-08T01:29:34;98536.66;;;7.34;100.00
70544;BME280;58097;48.364;-1.224;2024-03-08T01:31:59;98539.25;;;7.35;100.00
70544;BME280;58097;48.364;-1.224;2024-03-08T01:34:27;98543.38;;;7.31;100.00
70544;BME280;58097;48.364;-1.224;2024-03-08T01:36:54;98549.03;;;7.30;100.00
70544;BME280;58097;48.364;-1.224;2024-03-08T01:39:20;98538.22;;;7.28;100.00
70544;BME280;58097;48.364;-1.224;2024-03-08T01:41:47;98534.94;;;7.33;100.00
70544;BME280;58097;48.364;-1.224;2024-03-08T01:44:12;98525.69;;;7.34;100.00
70544;BME280;58097;48.364;-1.224;2024-03-08T01:46:44;98511.25;;;7.32;100.00
70544;BME280;58097;48.364;-1.224;2024-03-08T01:49:10;98511.94;;;7.34;100.00
70544;BME280;58097;48.364;-1.224;2024-03-08T01:51:36;98505.75;;;7.32;100.00
70544;BME280;58097;48.364;-1.224;2024-03-08T01:54:02;98493.59;;;7.26;100.00
70544;BME280;58097;48.364;-1.224;2024-03-08T01:56:29;98494.63;;;7.25;100.00
70544;BME280;58097;48.364;-1.224;2024-03-08T01:58:57;98501.97;;;7.33;100.00
70544;BME280;58097;48.364;-1.224;2024-03-08T02:01:23;98491.16;;;7.31;100.00
70544;BME280;58097;48.364;-1.224;2024-03-08T02:03:49;98490.31;;;7.31;100.00
70544;BME280;58097;48.364;-1.224;2024-03-08T02:06:14;98477.28;;;7.25;100.00
70544;BME280;58097;48.364;-1.224;2024-03-08T02:08:45;98484.81;;;7.31;100.00
70544;BME280;58097;48.364;-1.224;2024-03-08T02:11:11;98480.03;;;7.25;100.00
70544;BME280;58097;48.364;-1.224;2024-03-08T02:13:36;98476.41;;;7.24;100.00
70544;BME280;58097;48.364;-1.224;2024-03-08T02:16:02;98476.25;;;7.26;100.00
70544;BME280;58097;48.364;-1.224;2024-03-08T02:18:29;98474.53;;;7.25;100.00
70544;BME280;58097;48.364;-1.224;2024-03-08T02:20:55;98470.22;;;7.30;100.00
70544;BME280;58097;48.364;-1.224;2024-03-08T02:23:22;98456.66;;;7.29;100.00
70544;BME280;58097;48.364;-1.224;2024-03-08T02:25:48;98455.78;;;7.20;100.00
70544;BME280;58097;48.364;-1.224;2024-03-08T02:28:13;98441.75;;;7.23;100.00
70544;BME280;58097;48.364;-1.224;2024-03-08T02:30:39;98447.56;;;7.12;100.00
70544;BME280;58097;48.364;-1.224;2024-03-08T02:33:05;98440.88;;;7.14;100.00
70544;BME280;58097;48.364;-1.224;2024-03-08T02:35:31;98453.56;;;7.15;100.00
70544;BME280;58097;48.364;-1.224;2024-03-08T02:37:57;98447.72;;;7.19;100.00
70544;BME280;58097;48.364;-1.224;2024-03-08T02:40:22;98445.34;;;7.15;100.00
70544;BME280;58097;48.364;-1.224;2024-03-08T02:42:47;98431.97;;;7.04;100.00
70544;BME280;58097;48.364;-1.224;2024-03-08T02:45:13;98439.53;;;7.02;100.00
70544;BME280;58097;48.364;-1.224;2024-03-08T02:47:38;98416.22;;;6.98;100.00
70544;BME280;58097;48.364;-1.224;2024-03-08T02:50:05;98424.81;;;6.95;100.00
70544;BME280;58097;48.364;-1.224;2024-03-08T02:52:35;98415.00;;;6.93;100.00
70544;BME280;58097;48.364;-1.224;2024-03-08T02:55:01;98414.84;;;6.94;100.00
70544;BME280;58097;48.364;-1.224;2024-03-08T02:57:27;98409.69;;;6.83;100.00
70544;BME280;58097;48.364;-1.224;2024-03-08T02:59:53;98406.59;;;6.86;100.00
70544;BME280;58097;48.364;-1.224;2024-03-08T03:02:18;98407.97;;;6.90;100.00
70544;BME280;58097;48.364;-1.224;2024-03-08T03:04:44;98405.91;;;6.84;100.00
70544;BME280;58097;48.364;-1.224;2024-03-08T03:07:09;98395.13;;;6.82;100.00
70544;BME280;58097;48.364;-1.224;2024-03-08T03:09:34;98398.91;;;6.73;100.00
70544;BME280;58097;48.364;-1.224;2024-03-08T03:12:00;98389.81;;;6.73;100.00
70544;BME280;58097;48.364;-1.224;2024-03-08T03:14:25;98381.75;;;6.71;100.00
70544;BME280;58097;48.364;-1.224;2024-03-08T03:16:54;98376.59;;;6.76;100.00
70544;BME280;58097;48.364;-1.224;2024-03-08T03:19:20;98371.31;;;6.67;100.00
70544;BME280;58097;48.364;-1.224;2024-03-08T03:21:45;98368.72;;;6.73;100.00
70544;BME280;58097;48.364;-1.224;2024-03-08T03:24:11;98366.31;;;6.70;100.00
70544;BME280;58097;48.364;-1.224;2024-03-08T03:26:38;98363.06;;;6.67;100.00
70544;BME280;58097;48.364;-1.224;2024-03-08T03:29:07;98362.88;;;6.60;100.00
70544;BME280;58097;48.364;-1.224;2024-03-08T03:31:34;98363.06;;;6.59;100.00
70544;BME280;58097;48.364;-1.224;2024-03-08T03:34:00;98364.44;;;6.55;100.00
70544;BME280;58097;48.364;-1.224;2024-03-08T03:36:29;98362.03;;;6.60;100.00
70544;BME280;58097;48.364;-1.224;2024-03-08T03:38:55;98365.31;;;6.55;100.00
70544;BME280;58097;48.364;-1.224;2024-03-08T03:41:34;98360.50;;;6.49;100.00
70544;BME280;58097;48.364;-1.224;2024-03-08T03:44:00;98364.28;;;6.56;100.00
70544;BME280;58097;48.364;-1.224;2024-03-08T03:46:25;98350.75;;;6.46;100.00
70544;BME280;58097;48.364;-1.224;2024-03-08T03:48:53;98350.75;;;6.46;100.00
70544;BME280;58097;48.364;-1.224;2024-03-08T03:51:18;98349.72;;;6.47;100.00
70544;BME280;58097;48.364;-1.224;2024-03-08T03:53:45;98341.47;;;6.47;100.00
70544;BME280;58097;48.364;-1.224;2024-03-08T03:56:10;98344.91;;;6.49;100.00
70544;BME280;58097;48.364;-1.224;2024-03-08T03:58:36;98339.44;;;6.41;100.00
70544;BME280;58097;48.364;-1.224;2024-03-08T04:01:01;98338.06;;;6.29;100.00
70544;BME280;58097;48.364;-1.224;2024-03-08T04:03:26;98334.13;;;6.24;100.00
70544;BME280;58097;48.364;-1.224;2024-03-08T04:05:52;98325.22;;;6.21;100.00
70544;BME280;58097;48.364;-1.224;2024-03-08T04:08:17;98323.50;;;6.20;100.00
70544;BME280;58097;48.364;-1.224;2024-03-08T04:10:42;98320.22;;;6.25;100.00
70544;BME280;58097;48.364;-1.224;2024-03-08T04:13:08;98335.00;;;6.16;100.00
70544;BME280;58097;48.364;-1.224;2024-03-08T04:15:34;98325.22;;;6.13;100.00
70544;BME280;58097;48.364;-1.224;2024-03-08T04:18:00;98320.59;;;6.14;100.00
70544;BME280;58097;48.364;-1.224;2024-03-08T04:20:25;98323.00;;;6.09;100.00
70544;BME280;58097;48.364;-1.224;2024-03-08T04:22:51;98317.50;;;6.09;100.00
70544;BME280;58097;48.364;-1.224;2024-03-08T04:25:16;98313.56;;;6.11;100.00
70544;BME280;58097;48.364;-1.224;2024-03-08T04:27:42;98315.63;;;6.17;100.00
70544;BME280;58097;48.364;-1.224;2024-03-08T04:30:08;98315.78;;;6.16;100.00
70544;BME280;58097;48.364;-1.224;2024-03-08T04:32:34;98312.88;;;6.17;100.00
70544;BME280;58097;48.364;-1.224;2024-03-08T04:34:59;98307.22;;;6.19;100.00
70544;BME280;58097;48.364;-1.224;2024-03-08T04:37:27;98313.22;;;6.14;100.00
70544;BME280;58097;48.364;-1.224;2024-03-08T04:39:54;98291.44;;;6.05;100.00
70544;BME280;58097;48.364;-1.224;2024-03-08T04:42:20;98294.53;;;6.10;100.00
70544;BME280;58097;48.364;-1.224;2024-03-08T04:44:46;98299.69;;;6.13;100.00
70544;BME280;58097;48.364;-1.224;2024-03-08T04:47:11;98296.94;;;6.13;100.00
70544;BME280;58097;48.364;-1.224;2024-03-08T04:49:36;98290.78;;;6.11;100.00
70544;BME280;58097;48.364;-1.224;2024-03-08T04:52:03;98284.59;;;6.09;100.00
70544;BME280;58097;48.364;-1.224;2024-03-08T04:54:29;98280.28;;;6.06;100.00
70544;BME280;58097;48.364;-1.224;2024-03-08T04:56:54;98287.50;;;5.99;100.00
70544;BME280;58097;48.364;-1.224;2024-03-08T04:59:20;98269.84;;;6.02;100.00
70544;BME280;58097;48.364;-1.224;2024-03-08T05:01:45;98272.41;;;6.03;100.00
70544;BME280;58097;48.364;-1.224;2024-03-08T05:04:10;98267.13;;;5.94;100.00
70544;BME280;58097;48.364;-1.224;2024-03-08T05:06:36;98267.97;;;5.94;100.00
70544;BME280;58097;48.364;-1.224;2024-03-08T05:09:02;98274.97;;;6.05;100.00
70544;BME280;58097;48.364;-1.224;2024-03-08T05:11:45;98260.59;;;6.11;100.00
70544;BME280;58097;48.364;-1.224;2024-03-08T05:14:11;98258.22;;;6.08;100.00
70544;BME280;58097;48.364;-1.224;2024-03-08T05:16:39;98264.00;;;6.05;100.00
70544;BME280;58097;48.364;-1.224;2024-03-08T05:19:05;98256.66;;;6.13;100.00
70544;BME280;58097;48.364;-1.224;2024-03-08T05:21:30;98242.25;;;6.11;100.00
70544;BME280;58097;48.364;-1.224;2024-03-08T05:23:56;98248.25;;;6.15;100.00
70544;BME280;58097;48.364;-1.224;2024-03-08T05:26:21;98250.66;;;6.18;100.00
70544;BME280;58097;48.364;-1.224;2024-03-08T05:28:48;98233.69;;;6.14;100.00
70544;BME280;58097;48.364;-1.224;2024-03-08T05:31:22;98230.09;;;6.14;100.00
70544;BME280;58097;48.364;-1.224;2024-03-08T05:33:48;98229.75;;;6.17;100.00
70544;BME280;58097;48.364;-1.224;2024-03-08T05:36:14;98221.50;;;6.17;100.00
70544;BME280;58097;48.364;-1.224;2024-03-08T05:38:41;98222.19;;;6.19;100.00
70544;BME280;58097;48.364;-1.224;2024-03-08T05:41:09;98216.34;;;6.22;100.00
70544;BME280;58097;48.364;-1.224;2024-03-08T05:43:34;98223.03;;;6.28;100.00
70544;BME280;58097;48.364;-1.224;2024-03-08T05:45:59;98220.13;;;6.21;100.00
70544;BME280;58097;48.364;-1.224;2024-03-08T05:48:25;98220.13;;;6.21;100.00
70544;BME280;58097;48.364;-1.224;2024-03-08T05:50:50;98216.72;;;6.19;100.00
70544;BME280;58097;48.364;-1.224;2024-03-08T05:53:16;98221.34;;;6.18;100.00
70544;BME280;58097;48.364;-1.224;2024-03-08T05:55:41;98215.50;;;6.21;100.00
70544;BME280;58097;48.364;-1.224;2024-03-08T05:58:06;98216.34;;;6.22;100.00
70544;BME280;58097;48.364;-1.224;2024-03-08T06:00:33;98211.22;;;6.19;100.00
70544;BME280;58097;48.364;-1.224;2024-03-08T06:02:59;98216.34;;;6.22;100.00
70544;BME280;58097;48.364;-1.224;2024-03-08T06:05:24;98211.56;;;6.16;100.00
70544;BME280;58097;48.364;-1.224;2024-03-08T06:07:50;98216.38;;;6.14;100.00
70544;BME280;58097;48.364;-1.224;2024-03-08T06:10:18;98223.75;;;6.13;100.00
70544;BME280;58097;48.364;-1.224;2024-03-08T06:12:44;98208.69;;;6.09;100.00
70544;BME280;58097;48.364;-1.224;2024-03-08T06:15:11;98229.22;;;6.05;100.00
70544;BME280;58097;48.364;-1.224;2024-03-08T06:17:40;98213.47;;;6.07;100.00
70544;BME280;58097;48.364;-1.224;2024-03-08T06:20:06;98218.59;;;6.02;100.00
70544;BME280;58097;48.364;-1.224;2024-03-08T06:22:37;98226.66;;;6.04;100.00
70544;BME280;58097;48.364;-1.224;2024-03-08T06:25:03;98223.94;;;5.96;100.00
70544;BME280;58097;48.364;-1.224;2024-03-08T06:27:28;98224.63;;;5.98;100.00
70544;BME280;58097;48.364;-1.224;2024-03-08T06:29:54;98230.25;;;6.04;100.00
70544;BME280;58097;48.364;-1.224;2024-03-08T06:32:19;98238.31;;;6.06;100.00
70544;BME280;58097;48.364;-1.224;2024-03-08T06:34:44;98243.09;;;6.04;100.00
70544;BME280;58097;48.364;-1.224;2024-03-08T06:37:10;98246.03;;;6.02;100.00
70544;BME280;58097;48.364;-1.224;2024-03-08T06:39:35;98235.75;;;5.88;100.00
70544;BME280;58097;48.364;-1.224;2024-03-08T06:42:01;98242.06;;;5.88;100.00
70544;BME280;58097;48.364;-1.224;2024-03-08T06:44:26;98234.03;;;5.87;100.00
70544;BME280;58097;48.364;-1.224;2024-03-08T06:46:52;98238.00;;;5.93;100.00
70544;BME280;58097;48.364;-1.224;2024-03-08T06:49:17;98231.66;;;5.92;100.00
70544;BME280;58097;48.364;-1.224;2024-03-08T06:51:43;98230.09;;;5.81;100.00
70544;BME280;58097;48.364;-1.224;2024-03-08T06:54:08;98225.63;;;5.72;100.00
70544;BME280;58097;48.364;-1.224;2024-03-08T06:56:34;98223.56;;;5.74;100.00
70544;BME280;58097;48.364;-1.224;2024-03-08T06:58:59;98231.78;;;5.74;100.00
70544;BME280;58097;48.364;-1.224;2024-03-08T07:01:25;98232.31;;;5.70;100.00
70544;BME280;58097;48.364;-1.224;2024-03-08T07:03:50;98229.22;;;5.73;100.00
70544;BME280;58097;48.364;-1.224;2024-03-08T07:06:18;98231.78;;;5.74;100.00
70544;BME280;58097;48.364;-1.224;2024-03-08T07:08:44;98233.50;;;5.75;100.00
70544;BME280;58097;48.364;-1.224;2024-03-08T07:11:11;98231.97;;;5.73;100.00
70544;BME280;58097;48.364;-1.224;2024-03-08T07:13:37;98228.03;;;5.67;100.00
70544;BME280;58097;48.364;-1.224;2024-03-08T07:16:04;98234.53;;;5.74;100.00
70544;BME280;58097;48.364;-1.224;2024-03-08T07:18:30;98224.97;;;5.78;100.00
70544;BME280;58097;48.364;-1.224;2024-03-08T07:20:56;98232.16;;;5.87;100.00
70544;BME280;58097;48.364;-1.224;2024-03-08T07:23:22;98227.19;;;5.83;100.00
70544;BME280;58097;48.364;-1.224;2024-03-08T07:26:06;98237.78;;;5.78;100.00
70544;BME280;58097;48.364;-1.224;2024-03-08T07:28:31;98226.50;;;5.89;100.00
70544;BME280;58097;48.364;-1.224;2024-03-08T07:31:00;98225.66;;;5.80;100.00
70544;BME280;58097;48.364;-1.224;2024-03-08T07:33:45;98230.59;;;5.77;100.00
70544;BME280;58097;48.364;-1.224;2024-03-08T07:36:11;98228.03;;;5.83;100.00
70544;BME280;58097;48.364;-1.224;2024-03-08T07:38:36;98237.63;;;5.79;100.00
70544;BME280;58097;48.364;-1.224;2024-03-08T07:41:01;98239.84;;;5.84;100.00
70544;BME280;58097;48.364;-1.224;2024-03-08T07:43:27;98232.16;;;5.87;100.00
70544;BME280;58097;48.364;-1.224;2024-03-08T07:45:52;98233.84;;;5.88;100.00
70544;BME280;58097;48.364;-1.224;2024-03-08T07:48:20;98226.50;;;5.81;100.00
70544;BME280;58097;48.364;-1.224;2024-03-08T07:50:46;98218.59;;;5.86;100.00
70544;BME280;58097;48.364;-1.224;2024-03-08T07:53:11;98225.81;;;5.87;100.00
70544;BME280;58097;48.364;-1.224;2024-03-08T07:55:37;98228.53;;;5.87;100.00
70544;BME280;58097;48.364;-1.224;2024-03-08T07:58:03;98215.88;;;5.94;100.00
70544;BME280;58097;48.364;-1.224;2024-03-08T08:00:29;98210.88;;;6.06;100.00
70544;BME280;58097;48.364;-1.224;2024-03-08T08:02:56;98209.19;;;6.05;100.00
70544;BME280;58097;48.364;-1.224;2024-03-08T08:05:21;98209.53;;;6.10;100.00
70544;BME280;58097;48.364;-1.224;2024-03-08T08:07:47;98208.16;;;6.06;100.00
70544;BME280;58097;48.364;-1.224;2024-03-08T08:10:13;98199.06;;;6.13;100.00
70544;BME280;58097;48.364;-1.224;2024-03-08T08:12:49;98201.31;;;6.10;100.00
70544;BME280;58097;48.364;-1.224;2024-03-08T08:15:15;98200.44;;;6.09;100.00
70544;BME280;58097;48.364;-1.224;2024-03-08T08:17:49;98193.38;;;6.23;100.00
70544;BME280;58097;48.364;-1.224;2024-03-08T08:20:15;98191.84;;;6.20;100.00
70544;BME280;58097;48.364;-1.224;2024-03-08T08:22:41;98182.72;;;6.28;100.00
70544;BME280;58097;48.364;-1.224;2024-03-08T08:25:08;98184.25;;;6.39;100.00
70544;BME280;58097;48.364;-1.224;2024-03-08T08:27:34;98179.97;;;6.36;100.00
70544;BME280;58097;48.364;-1.224;2024-03-08T08:30:02;98180.44;;;6.48;100.00
70544;BME280;58097;48.364;-1.224;2024-03-08T08:32:27;98176.63;;;6.57;100.00
70544;BME280;58097;48.364;-1.224;2024-03-08T08:34:53;98180.53;;;6.63;100.00
70544;BME280;58097;48.364;-1.224;2024-03-08T08:37:18;98176.69;;;6.80;100.00
70544;BME280;58097;48.364;-1.224;2024-03-08T08:39:43;98167.34;;;6.89;100.00
70544;BME280;58097;48.364;-1.224;2024-03-08T08:42:09;98166.81;;;6.94;100.00
70544;BME280;58097;48.364;-1.224;2024-03-08T08:44:35;98166.50;;;6.89;100.00
70544;BME280;58097;48.364;-1.224;2024-03-08T08:47:01;98160.84;;;6.90;100.00
70544;BME280;58097;48.364;-1.224;2024-03-08T08:49:26;98152.50;;;7.06;100.00
70544;BME280;58097;48.364;-1.224;2024-03-08T08:51:52;98155.75;;;7.10;100.00
70544;BME280;58097;48.364;-1.224;2024-03-08T08:54:18;98153.06;;;7.02;100.00
70544;BME280;58097;48.364;-1.224;2024-03-08T08:56:44;98149.69;;;7.14;100.00
70544;BME280;58097;48.364;-1.224;2024-03-08T08:59:09;98152.56;;;7.21;100.00
70544;BME280;58097;48.364;-1.224;2024-03-08T09:01:39;98147.78;;;7.23;100.00
70544;BME280;58097;48.364;-1.224;2024-03-08T09:04:04;98152.63;;;7.36;100.00
70544;BME280;58097;48.364;-1.224;2024-03-08T09:06:29;98150.31;;;7.47;100.00
70544;BME280;58097;48.364;-1.224;2024-03-08T09:08:55;98151.47;;;7.53;100.00
70544;BME280;58097;48.364;-1.224;2024-03-08T09:11:20;98146.84;;;7.54;100.00
70544;BME280;58097;48.364;-1.224;2024-03-08T09:13:45;98146.56;;;7.63;100.00
70544;BME280;58097;48.364;-1.224;2024-03-08T09:16:14;98146.78;;;7.76;100.00
70544;BME280;58097;48.364;-1.224;2024-03-08T09:18:39;98142.66;;;7.81;100.00
70544;BME280;58097;48.364;-1.224;2024-03-08T09:21:06;98146.81;;;7.91;100.00
70544;BME280;58097;48.364;-1.224;2024-03-08T09:23:35;98144.84;;;8.00;100.00
70544;BME280;58097;48.364;-1.224;2024-03-08T09:26:01;98137.34;;;8.08;100.00
70544;BME280;58097;48.364;-1.224;2024-03-08T09:28:28;98136.59;;;8.15;100.00
70544;BME280;58097;48.364;-1.224;2024-03-08T09:30:54;98135.19;;;8.19;100.00
70544;BME280;58097;48.364;-1.224;2024-03-08T09:33:20;98129.31;;;8.22;100.00
70544;BME280;58097;48.364;-1.224;2024-03-08T09:35:46;98122.38;;;8.11;100.00
70544;BME280;58097;48.364;-1.224;2024-03-08T09:38:13;98122.25;;;8.04;100.00
70544;BME280;58097;48.364;-1.224;2024-03-08T09:40:43;98111.44;;;8.03;100.00
70544;BME280;58097;48.364;-1.224;2024-03-08T09:43:09;98108.81;;;8.10;100.00
70544;BME280;58097;48.364;-1.224;2024-03-08T09:45:37;98112.22;;;8.12;100.00
70544;BME280;58097;48.364;-1.224;2024-03-08T09:48:10;98109.00;;;8.23;100.00
70544;BME280;58097;48.364;-1.224;2024-03-08T09:50:38;98108.69;;;8.32;100.00
70544;BME280;58097;48.364;-1.224;2024-03-08T09:53:03;98113.75;;;8.44;100.00
70544;BME280;58097;48.364;-1.224;2024-03-08T09:55:29;98096.47;;;8.50;100.00
70544;BME280;58097;48.364;-1.224;2024-03-08T09:58:00;98102.53;;;8.60;100.00
70544;BME280;58097;48.364;-1.224;2024-03-08T10:00:55;98099.75;;;8.75;100.00
70544;BME280;58097;48.364;-1.224;2024-03-08T10:03:27;98088.47;;;8.91;100.00
70544;BME280;58097;48.364;-1.224;2024-03-08T10:05:52;98085.44;;;9.00;100.00
70544;BME280;58097;48.364;-1.224;2024-03-08T10:08:22;98089.03;;;9.01;100.00
70544;BME280;58097;48.364;-1.224;2024-03-08T10:10:47;98097.22;;;8.94;100.00
70544;BME280;58097;48.364;-1.224;2024-03-08T10:13:14;98083.50;;;8.80;100.00
70544;BME280;58097;48.364;-1.224;2024-03-08T10:15:42;98082.97;;;8.91;100.00
70544;BME280;58097;48.364;-1.224;2024-03-08T10:18:07;98077.22;;;9.07;100.00
70544;BME280;58097;48.364;-1.224;2024-03-08T10:20:33;98063.50;;;9.14;100.00
70544;BME280;58097;48.364;-1.224;2024-03-08T10:23:04;98069.69;;;9.16;100.00
70544;BME280;58097;48.364;-1.224;2024-03-08T10:25:33;98059.75;;;9.21;100.00
70544;BME280;58097;48.364;-1.224;2024-03-08T10:27:59;98050.53;;;9.29;100.00
70544;BME280;58097;48.364;-1.224;2024-03-08T10:30:25;98050.19;;;9.39;100.00
70544;BME280;58097;48.364;-1.224;2024-03-08T10:32:50;98048.03;;;9.34;100.00
70544;BME280;58097;48.364;-1.224;2024-03-08T10:35:17;98050.38;;;9.37;100.00
70544;BME280;58097;48.364;-1.224;2024-03-08T10:37:50;98051.03;;;9.39;100.00
70544;BME280;58097;48.364;-1.224;2024-03-08T10:40:24;98052.19;;;9.51;100.00
70544;BME280;58097;48.364;-1.224;2024-03-08T10:42:57;98046.88;;;9.50;100.00
70544;BME280;58097;48.364;-1.224;2024-03-08T10:48:04;98046.47;;;9.53;100.00
70544;BME280;58097;48.364;-1.224;2024-03-08T10:50:34;98040.06;;;9.46;100.00
70544;BME280;58097;48.364;-1.224;2024-03-08T10:53:01;98038.38;;;9.51;100.00
70544;BME280;58097;48.364;-1.224;2024-03-08T10:55:28;98035.84;;;9.78;100.00
70544;BME280;58097;48.364;-1.224;2024-03-08T10:57:53;98031.88;;;9.87;100.00
70544;BME280;58097;48.364;-1.224;2024-03-08T11:00:19;98040.84;;;9.96;100.00
70544;BME280;58097;48.364;-1.224;2024-03-08T11:02:53;98037.44;;;9.93;100.00
70544;BME280;58097;48.364;-1.224;2024-03-08T11:05:38;98021.94;;;9.92;100.00
70544;BME280;58097;48.364;-1.224;2024-03-08T11:08:20;98024.50;;;9.94;100.00
70544;BME280;58097;48.364;-1.224;2024-03-08T11:10:49;98027.28;;;10.01;100.00
70544;BME280;58097;48.364;-1.224;2024-03-08T11:13:37;98015.19;;;10.02;100.00
70544;BME280;58097;48.364;-1.224;2024-03-08T11:16:37;98009.09;;;10.13;100.00
70544;BME280;58097;48.364;-1.224;2024-03-08T11:19:05;98010.47;;;10.23;100.00
70544;BME280;58097;48.364;-1.224;2024-03-08T11:21:31;98007.50;;;10.32;100.00
70544;BME280;58097;48.364;-1.224;2024-03-08T11:24:12;97996.34;;;10.46;100.00
70544;BME280;58097;48.364;-1.224;2024-03-08T11:26:39;97997.00;;;10.62;100.00
70544;BME280;58097;48.364;-1.224;2024-03-08T11:32:10;98000.81;;;10.54;97.95
70544;BME280;58097;48.364;-1.224;2024-03-08T11:34:36;97997.41;;;10.52;98.84
70544;BME280;58097;48.364;-1.224;2024-03-08T11:37:10;97991.69;;;10.60;98.83
70544;BME280;58097;48.364;-1.224;2024-03-08T11:39:39;97990.63;;;10.68;100.00
70544;BME280;58097;48.364;-1.224;2024-03-08T11:42:04;97993.66;;;10.73;98.39
70544;BME280;58097;48.364;-1.224;2024-03-08T11:44:30;97994.09;;;10.76;100.00
70544;BME280;58097;48.364;-1.224;2024-03-08T11:46:57;97987.50;;;10.91;100.00
70544;BME280;58097;48.364;-1.224;2024-03-08T11:49:22;97981.78;;;10.99;100.00
70544;BME280;58097;48.364;-1.224;2024-03-08T11:51:51;97986.69;;;11.03;100.00
70544;BME280;58097;48.364;-1.224;2024-03-08T11:54:17;97987.13;;;11.07;95.92
70544;BME280;58097;48.364;-1.224;2024-03-08T11:56:44;97986.47;;;11.18;99.50
70544;BME280;58097;48.364;-1.224;2024-03-08T11:59:12;97989.66;;;11.22;98.12
70544;BME280;58097;48.364;-1.224;2024-03-08T12:01:38;97983.06;;;11.16;99.70
70544;BME280;58097;48.364;-1.224;2024-03-08T12:04:04;97980.53;;;11.41;100.00
70544;BME280;58097;48.364;-1.224;2024-03-08T12:06:39;97962.19;;;11.53;97.74
70544;BME280;58097;48.364;-1.224;2024-03-08T12:09:07;97967.31;;;11.63;95.08
70544;BME280;58097;48.364;-1.224;2024-03-08T12:11:34;97965.00;;;11.40;95.33
70544;BME280;58097;48.364;-1.224;2024-03-08T12:14:01;97963.91;;;11.47;93.93
70544;BME280;58097;48.364;-1.224;2024-03-08T12:16:27;97961.78;;;11.49;95.68
70544;BME280;58097;48.364;-1.224;2024-03-08T12:18:52;97963.06;;;11.60;96.68
70544;BME280;58097;48.364;-1.224;2024-03-08T12:21:19;97956.22;;;11.69;96.51
70544;BME280;58097;48.364;-1.224;2024-03-08T12:24:03;97958.81;;;11.58;93.12
70544;BME280;58097;48.364;-1.224;2024-03-08T12:26:28;97954.13;;;11.45;93.25
70544;BME280;58097;48.364;-1.224;2024-03-08T12:29:14;97953.09;;;11.39;92.67
70544;BME280;58097;48.364;-1.224;2024-03-08T12:31:42;97943.72;;;11.47;96.89
70544;BME280;58097;48.364;-1.224;2024-03-08T12:34:08;97936.25;;;11.67;99.38
70544;BME280;58097;48.364;-1.224;2024-03-08T12:36:35;97934.72;;;11.71;96.42
70544;BME280;58097;48.364;-1.224;2024-03-08T12:39:01;97933.44;;;11.74;96.37
70544;BME280;58097;48.364;-1.224;2024-03-08T12:41:29;97936.84;;;11.76;94.02
70544;BME280;58097;48.364;-1.224;2024-03-08T12:43:54;97925.59;;;11.71;96.07
70544;BME280;58097;48.364;-1.224;2024-03-08T12:46:21;97924.94;;;11.69;94.67
70544;BME280;58097;48.364;-1.224;2024-03-08T12:48:51;97924.94;;;11.69;95.36
70544;BME280;58097;48.364;-1.224;2024-03-08T12:51:20;97913.69;;;11.64;94.94
70544;BME280;58097;48.364;-1.224;2024-03-08T12:53:46;97906.03;;;11.66;92.39
70544;BME280;58097;48.364;-1.224;2024-03-08T12:56:12;97903.06;;;11.61;91.59